Concord Corner, Vermont
Current Conditions -  °F | °C
As of 11:35 AM on Wednesday 22 Oct 2014 (Local Time) from KCDA Reporting Station
Overcast Overcast  
Wind Chill: 48°   Ceiling: 2600
Heat Index: 50°   Visibility: 10mi
Dew Point: 44°   Wind: 6mph
Humidity: 79%   Direction: 310°NW
Pressure: 30.2"   Gusts: NA
Location:  44.4417°N, 71.859°W
Report Text: KCDA 221535Z AUTO 31005KT 10SM BKN026 OVC075 10/07 A3020 RMK AO2 T00990065
Loading
Personal Weather Stations






























Interactive Weather Map
Tropical Storm Tracking
New forecast layout! Learn more

10-Day Weather Forecast

Advertisements
Track Severe Weather on mobile